This is the latest recevied weather packets stored in our database for station/object W0DXV. If no packets are shown the sender has not sent any weather packets the latest 10 day(s).
| Time | Temp. | Humidity | Pressure | Rain* | Wind** | Luminosity | Snow |
|---|---|---|---|---|---|---|---|
| 1777536760 | 16.11° C | 77% | 1005.4 hPa | 0 mm | - | 0 W/m² | - |
| 1777536457 | 16.11° C | 77% | 1005.6 hPa | 0 mm | - | 0 W/m² | - |
| 1777536154 | 16.11° C | 78% | 1005.4 hPa | 0 mm | - | 0 W/m² | - |
| 1777535849 | 16.11° C | 78% | 1005.4 hPa | 0 mm | - | 0 W/m² | - |
| 1777535546 | 16.11° C | 79% | 1005.5 hPa | 0 mm | - | 0 W/m² | - |
| 1777535243 | 16.67° C | 79% | 1005.6 hPa | 0 mm | - | 0 W/m² | - |
| 1777534940 | 16.11° C | 80% | 1005.6 hPa | 0 mm | - | 0 W/m² | - |
| 1777534636 | 16.11° C | 83% | 1005.2 hPa | 0 mm | - | 0 W/m² | - |
| 1777534334 | 16.67° C | 81% | 1005 hPa | 0 mm | - | 0 W/m² | - |
| 1777534032 | 16.67° C | 79% | 1004.8 hPa | 0 mm | - | 0 W/m² | - |
| 1777533729 | 16.67° C | 80% | 1004.7 hPa | 0 mm | - | 0 W/m² | - |
| 1777533425 | 16.67° C | 82% | 1004.7 hPa | 0 mm | - | 0 W/m² | - |
| 1777533121 | 15.56° C | 86% | 1004.9 hPa | 0 mm | - | 0 W/m² | - |
| 1777532819 | 15.56° C | 90% | 1004.9 hPa | 0 mm | - | 0 W/m² | - |
| 1777532514 | 15.56° C | 90% | 1004.7 hPa | 0 mm | - | 0 W/m² | - |
| 1777532212 | 13.89° C | 98% | 1004.7 hPa | 0 mm | - | 0 W/m² | - |
| 1777531908 | 14.44° C | 98% | 1004.8 hPa | 0 mm | - | 0 W/m² | - |
| 1777531604 | 14.44° C | 98% | 1004.9 hPa | 0 mm | - | 0 W/m² | - |
| 1777531301 | 14.44° C | 98% | 1004.8 hPa | 0 mm | - | 0 W/m² | - |
| 1777530999 | 14.44° C | 98% | 1004.9 hPa | 0 mm | - | 0 W/m² | - |
| 1777530696 | 14.44° C | 98% | 1005 hPa | 0 mm | - | 0 W/m² | - |
| 1777530393 | 14.44° C | 98% | 1005 hPa | 0 mm | - | 0 W/m² | - |
| 1777530089 | 14.44° C | 98% | 1005.2 hPa | 0 mm | - | 0 W/m² | - |
| 1777529787 | 14.44° C | 98% | 1005.3 hPa | 0 mm | - | 0 W/m² | - |
| 1777529483 | 14.44° C | 98% | 1005.4 hPa | 0 mm | - | 0 W/m² | - |
* Rain latest hour (hover to see other rain measurements)
** Current wind speed in m/s (hover to see current wind gust speed)